createdAt,value
2018-07-28T00:00:41.873Z,19.92
2018-07-28T00:01:41.689Z,19.94
2018-07-28T00:02:41.634Z,19.97
2018-07-28T00:03:41.516Z,19.90
2018-07-28T00:04:41.428Z,19.86
2018-07-28T00:05:41.342Z,19.83
2018-07-28T00:06:41.253Z,19.82
2018-07-28T00:07:41.290Z,19.87
2018-07-28T00:08:41.077Z,19.97
2018-07-28T00:09:40.994Z,20.02
2018-07-28T00:10:40.910Z,20.08
2018-07-28T00:11:40.815Z,20.17
2018-07-28T00:12:40.760Z,20.25
2018-07-28T00:13:40.640Z,20.27
2018-07-28T00:14:40.553Z,20.41
2018-07-28T00:15:40.468Z,20.42
2018-07-28T00:16:40.379Z,20.40
2018-07-28T00:17:40.324Z,20.38
2018-07-28T00:18:40.204Z,20.42
2018-07-28T00:19:40.119Z,20.44
2018-07-28T00:20:40.031Z,20.50
2018-07-28T00:21:40.038Z,20.53
2018-07-28T00:22:39.886Z,20.48
2018-07-28T00:23:39.768Z,20.41
2018-07-28T00:24:39.682Z,20.40
2018-07-28T00:25:39.597Z,20.42
2018-07-28T00:26:39.502Z,20.48
2018-07-28T00:27:39.446Z,20.50
2018-07-28T00:28:39.426Z,20.41
2018-07-28T00:29:39.241Z,20.41
2018-07-28T00:30:39.158Z,20.33
2018-07-28T00:31:39.067Z,20.31
2018-07-28T00:32:38.983Z,20.25
2018-07-28T00:33:38.924Z,20.38
2018-07-28T00:34:38.807Z,20.41
2018-07-28T00:35:38.811Z,20.40
2018-07-28T00:36:38.633Z,20.33
2018-07-28T00:37:38.591Z,20.40
2018-07-28T00:38:38.455Z,20.37
2018-07-28T00:39:38.366Z,20.31
2018-07-28T00:40:38.281Z,20.41
2018-07-28T00:41:38.192Z,20.40
2018-07-28T00:42:38.200Z,20.44
2018-07-28T00:43:38.048Z,20.42
2018-07-28T00:44:37.929Z,20.48
2018-07-28T00:45:37.848Z,20.46
2018-07-28T00:46:37.761Z,20.41
2018-07-28T00:47:37.673Z,20.41
2018-07-28T00:48:37.615Z,20.35
2018-07-28T00:49:37.583Z,20.44
2018-07-28T00:50:37.408Z,20.40
2018-07-28T00:51:37.321Z,20.42
2018-07-28T00:52:37.233Z,20.41
2018-07-28T00:53:37.176Z,20.34
2018-07-28T00:54:37.058Z,20.40
2018-07-28T00:55:36.968Z,20.33
2018-07-28T00:56:36.991Z,20.42
2018-07-28T00:57:36.798Z,20.35
2018-07-28T00:58:36.736Z,20.41
2018-07-28T00:59:36.619Z,20.40
2018-07-28T01:00:36.536Z,20.38
2018-07-28T01:01:36.445Z,20.31
2018-07-28T01:02:36.357Z,20.31
2018-07-28T01:03:36.393Z,20.26
2018-07-28T01:04:36.184Z,20.41
2018-07-28T01:05:36.095Z,20.33
2018-07-28T01:06:36.011Z,20.30
2018-07-28T01:07:35.919Z,20.41
2018-07-28T01:08:35.865Z,20.30
2018-07-28T01:09:35.756Z,20.23
2018-07-28T01:10:35.763Z,20.22
2018-07-28T01:11:35.571Z,20.26
2018-07-28T01:12:35.483Z,20.22
2018-07-28T01:13:35.430Z,20.12
2018-07-28T01:14:35.310Z,20.12
2018-07-28T01:15:35.224Z,20.02
2018-07-28T01:16:35.132Z,19.94
2018-07-28T01:17:35.136Z,19.92
2018-07-28T01:18:34.989Z,19.89
2018-07-28T01:19:34.872Z,19.82
2018-07-28T01:20:34.782Z,19.82
2018-07-28T01:21:34.696Z,19.82
2018-07-28T01:22:34.607Z,19.86
2018-07-28T01:23:34.549Z,19.86
2018-07-28T01:24:34.528Z,19.89
2018-07-28T01:25:34.347Z,19.95
2018-07-28T01:26:34.257Z,19.95
2018-07-28T01:27:34.169Z,19.92
2018-07-28T01:28:34.113Z,19.92
2018-07-28T01:29:33.996Z,19.83
2018-07-28T01:30:33.909Z,19.83
2018-07-28T01:31:33.920Z,19.83
2018-07-28T01:32:33.733Z,19.86
2018-07-28T01:33:33.679Z,19.83
2018-07-28T01:34:33.558Z,19.83
2018-07-28T01:35:33.469Z,19.86
2018-07-28T01:36:33.382Z,19.85
2018-07-28T01:37:33.415Z,19.86
2018-07-28T01:38:33.239Z,19.87
2018-07-28T01:39:33.119Z,19.85
2018-07-28T01:40:33.028Z,19.82
2018-07-28T01:41:32.960Z,19.89
2018-07-28T01:42:32.857Z,19.87
2018-07-28T01:43:32.797Z,19.95
2018-07-28T01:44:32.773Z,19.83
2018-07-28T01:45:32.594Z,19.86
2018-07-28T01:46:32.509Z,19.98
2018-07-28T01:47:32.418Z,19.92
2018-07-28T01:48:32.359Z,19.95
2018-07-28T01:49:32.260Z,19.89
2018-07-28T01:50:32.159Z,19.87
2018-07-28T01:51:32.068Z,19.86
2018-07-28T01:52:31.979Z,19.83
2018-07-28T01:53:31.921Z,19.85
2018-07-28T01:54:31.807Z,19.87
2018-07-28T01:55:31.719Z,19.87
2018-07-28T01:56:31.630Z,19.92
2018-07-28T01:57:31.544Z,19.82
2018-07-28T01:58:31.484Z,19.82
2018-07-28T01:59:31.364Z,19.76
2018-07-28T02:00:31.279Z,19.70
2018-07-28T02:01:31.191Z,19.78
2018-07-28T02:02:31.103Z,19.67
2018-07-28T02:03:31.048Z,19.71
2018-07-28T02:04:30.927Z,19.75
2018-07-28T02:05:30.841Z,19.71
2018-07-28T02:06:30.756Z,19.72
2018-07-28T02:07:30.666Z,19.75
2018-07-28T02:08:30.578Z,19.60
2018-07-28T02:09:30.520Z,19.50
2018-07-28T02:10:30.401Z,19.49
2018-07-28T02:11:30.313Z,19.38
2018-07-28T02:12:30.231Z,19.43
2018-07-28T02:13:30.152Z,19.34
2018-07-28T02:14:30.082Z,19.47
2018-07-28T02:15:29.962Z,19.46
2018-07-28T02:16:29.875Z,19.47
2018-07-28T02:17:29.786Z,19.57
2018-07-28T02:18:29.700Z,19.58
2018-07-28T02:19:29.643Z,19.64
2018-07-28T02:20:29.527Z,19.67
2018-07-28T02:21:29.437Z,19.62
2018-07-28T02:22:29.348Z,19.60
2018-07-28T02:23:29.262Z,19.57
2018-07-28T02:24:29.217Z,19.62
2018-07-28T02:25:29.088Z,19.58
2018-07-28T02:26:28.995Z,19.55
2018-07-28T02:27:28.917Z,19.49
2018-07-28T02:28:28.819Z,19.57
2018-07-28T02:29:28.766Z,19.50
2018-07-28T02:30:28.644Z,19.68
2018-07-28T02:31:28.559Z,19.75
2018-07-28T02:32:28.470Z,19.68
2018-07-28T02:33:28.386Z,19.71
2018-07-28T02:34:28.327Z,19.79
2018-07-28T02:35:28.208Z,19.76
2018-07-28T02:36:28.121Z,19.76
2018-07-28T02:37:28.036Z,19.82
2018-07-28T02:38:27.943Z,19.82
2018-07-28T02:39:27.885Z,19.86
2018-07-28T02:40:27.770Z,19.85
2018-07-28T02:41:27.681Z,19.83
2018-07-28T02:42:27.592Z,19.82
2018-07-28T02:43:27.509Z,19.80
2018-07-28T02:44:27.446Z,19.90
2018-07-28T02:45:27.328Z,19.80
2018-07-28T02:46:27.240Z,19.82
2018-07-28T02:47:27.151Z,19.85
2018-07-28T02:48:27.062Z,19.78
2018-07-28T02:49:27.004Z,19.79
2018-07-28T02:50:26.886Z,19.76
2018-07-28T02:51:26.802Z,19.76
2018-07-28T02:52:26.714Z,19.70
2018-07-28T02:53:26.624Z,19.72
2018-07-28T02:54:26.570Z,19.76
2018-07-28T02:55:26.447Z,19.76
2018-07-28T02:56:26.361Z,19.72
2018-07-28T02:57:26.273Z,19.62
2018-07-28T02:58:26.188Z,19.61
2018-07-28T02:59:26.144Z,19.60
2018-07-28T03:00:26.011Z,19.71
2018-07-28T03:01:26.014Z,19.60
2018-07-28T03:02:25.834Z,19.64
2018-07-28T03:03:25.744Z,19.67
2018-07-28T03:04:25.688Z,19.68
2018-07-28T03:05:25.566Z,19.55
2018-07-28T03:06:25.482Z,19.65
2018-07-28T03:07:25.391Z,19.76
2018-07-28T03:08:25.304Z,19.65
2018-07-28T03:09:25.249Z,19.57
2018-07-28T03:10:25.127Z,19.57
2018-07-28T03:11:25.039Z,19.49
2018-07-28T03:12:24.954Z,19.61
2018-07-28T03:13:24.866Z,19.61
2018-07-28T03:14:24.807Z,19.57
2018-07-28T03:15:24.779Z,19.62
2018-07-28T03:16:24.603Z,19.70
2018-07-28T03:17:24.512Z,19.60
2018-07-28T03:18:24.441Z,19.62
2018-07-28T03:19:24.366Z,19.49
2018-07-28T03:20:24.255Z,19.55
2018-07-28T03:21:24.166Z,19.49
2018-07-28T03:22:24.168Z,19.50
2018-07-28T03:23:23.988Z,19.58
2018-07-28T03:24:23.932Z,19.57
2018-07-28T03:25:23.806Z,19.57
2018-07-28T03:26:23.719Z,19.64
2018-07-28T03:27:23.636Z,19.67
2018-07-28T03:28:23.550Z,19.64
2018-07-28T03:29:23.565Z,19.62
2018-07-28T03:30:23.369Z,19.64
2018-07-28T03:31:23.283Z,19.55
2018-07-28T03:32:23.195Z,19.49
2018-07-28T03:33:23.107Z,19.49
2018-07-28T03:34:23.046Z,19.55
2018-07-28T03:35:22.929Z,19.55
2018-07-28T03:36:22.934Z,19.57
2018-07-28T03:37:30.612Z,19.79
2018-07-28T03:38:22.664Z,19.79
2018-07-28T03:39:22.580Z,19.70
2018-07-28T03:40:22.909Z,19.78
2018-07-28T03:41:22.404Z,19.79
2018-07-28T03:42:30.128Z,19.72
2018-07-28T03:43:22.227Z,19.72
2018-07-28T03:44:22.141Z,19.71
2018-07-28T03:45:22.082Z,19.85
2018-07-28T03:46:21.963Z,19.85
2018-07-28T03:47:22.155Z,19.95
2018-07-28T03:48:21.785Z,19.97
2018-07-28T03:49:21.773Z,19.98
2018-07-28T03:50:21.642Z,19.87
2018-07-28T03:51:21.525Z,19.95
2018-07-28T03:52:21.434Z,19.94
2018-07-28T03:53:21.349Z,19.92
2018-07-28T03:54:21.353Z,19.89
2018-07-28T03:55:21.203Z,19.83
2018-07-28T03:56:21.083Z,19.80
2018-07-28T03:57:20.998Z,19.86
2018-07-28T03:58:20.909Z,19.90
2018-07-28T03:59:20.820Z,19.85
2018-07-28T04:00:20.765Z,19.83
2018-07-28T04:01:20.752Z,19.82
2018-07-28T04:02:20.556Z,19.79
2018-07-28T04:03:20.470Z,19.72
2018-07-28T04:04:20.382Z,19.72
2018-07-28T04:05:20.326Z,19.72
2018-07-28T04:06:20.206Z,19.75
2018-07-28T04:07:20.119Z,19.82
2018-07-28T04:08:20.123Z,19.75
2018-07-28T04:09:19.946Z,19.70
2018-07-28T04:10:19.886Z,19.70
2018-07-28T04:11:19.767Z,19.68
2018-07-28T04:12:19.679Z,19.67
2018-07-28T04:13:19.593Z,19.64
2018-07-28T04:14:19.555Z,19.67
2018-07-28T04:15:19.539Z,19.64
2018-07-28T04:16:19.328Z,19.67
2018-07-28T04:17:19.240Z,19.57
2018-07-28T04:18:19.154Z,19.60
2018-07-28T04:19:19.065Z,19.68
2018-07-28T04:20:19.009Z,19.75
2018-07-28T04:21:18.890Z,19.70
2018-07-28T04:22:18.904Z,19.76
2018-07-28T04:23:18.716Z,19.76
2018-07-28T04:24:18.629Z,19.60
2018-07-28T04:25:18.570Z,19.62
2018-07-28T04:26:18.449Z,19.62
2018-07-28T04:27:18.362Z,19.58
2018-07-28T04:28:18.278Z,19.60
2018-07-28T04:29:18.279Z,19.55
2018-07-28T04:30:18.132Z,19.52
2018-07-28T04:31:18.014Z,19.58
2018-07-28T04:32:17.928Z,19.52
2018-07-28T04:33:17.847Z,19.49
2018-07-28T04:34:17.749Z,19.46
2018-07-28T04:35:17.691Z,19.50
2018-07-28T04:36:17.667Z,19.38
2018-07-28T04:37:17.488Z,19.32
2018-07-28T04:38:17.396Z,19.38
2018-07-28T04:39:17.309Z,19.34
2018-07-28T04:40:17.254Z,19.27
2018-07-28T04:41:17.135Z,19.24
2018-07-28T04:42:17.044Z,19.24
2018-07-28T04:43:17.053Z,19.10
2018-07-28T04:44:16.873Z,19.07
2018-07-28T04:45:16.816Z,19.16
2018-07-28T04:46:16.695Z,19.16
2018-07-28T04:47:16.607Z,19.21
2018-07-28T04:48:16.520Z,19.10
2018-07-28T04:49:16.430Z,19.24
2018-07-28T04:50:16.469Z,19.21
2018-07-28T04:51:16.256Z,19.17
2018-07-28T04:52:16.167Z,19.21
2018-07-28T04:53:16.082Z,19.30
2018-07-28T04:54:15.995Z,19.31
2018-07-28T04:55:15.935Z,19.35
2018-07-28T04:56:15.940Z,19.45
2018-07-28T04:57:15.729Z,19.50
2018-07-28T04:58:15.643Z,19.61
2018-07-28T04:59:15.558Z,19.61
2018-07-28T05:00:15.497Z,19.79
2018-07-28T05:01:15.376Z,19.82
2018-07-28T05:02:15.288Z,19.86
2018-07-28T05:03:15.205Z,19.95
2018-07-28T05:04:15.112Z,19.92
2018-07-28T05:05:15.056Z,20.02
2018-07-28T05:06:14.939Z,20.10
2018-07-28T05:07:14.875Z,20.17
2018-07-28T05:08:14.763Z,20.25
2018-07-28T05:09:14.675Z,20.22
2018-07-28T05:10:14.590Z,20.23
2018-07-28T05:11:14.628Z,20.33
2018-07-28T05:12:14.414Z,20.33
2018-07-28T05:13:14.326Z,20.38
2018-07-28T05:14:14.241Z,20.53
2018-07-28T05:15:14.154Z,20.58
2018-07-28T05:16:14.103Z,20.57
2018-07-28T05:17:14.105Z,20.71
2018-07-28T05:18:13.890Z,20.72
2018-07-28T05:19:13.802Z,20.72
2018-07-28T05:20:13.716Z,20.72
2018-07-28T05:21:13.659Z,20.76
2018-07-28T05:22:13.543Z,20.78
2018-07-28T05:23:13.453Z,20.72
2018-07-28T05:24:13.367Z,20.69
2018-07-28T05:25:13.281Z,20.69
2018-07-28T05:26:13.224Z,20.63
2018-07-28T05:27:13.104Z,20.69
2018-07-28T05:28:13.017Z,20.69
2018-07-28T05:29:12.932Z,20.71
2018-07-28T05:30:12.845Z,20.72
2018-07-28T05:31:12.794Z,20.82
2018-07-28T05:32:12.668Z,20.82
2018-07-28T05:33:12.582Z,20.85
2018-07-28T05:34:12.498Z,20.90
2018-07-28T05:35:12.409Z,20.98
2018-07-28T05:36:12.355Z,20.96
2018-07-28T05:37:12.273Z,21.16
2018-07-28T05:38:12.149Z,21.18
2018-07-28T05:39:12.063Z,21.31
2018-07-28T05:40:11.974Z,21.36
2018-07-28T05:41:11.922Z,21.40
2018-07-28T05:42:11.800Z,21.34
2018-07-28T05:43:11.715Z,21.42
2018-07-28T05:44:11.628Z,21.52
2018-07-28T05:45:11.540Z,21.52
2018-07-28T05:46:11.487Z,21.48
2018-07-28T05:47:11.369Z,21.58
2018-07-28T05:48:11.284Z,21.64
2018-07-28T05:49:11.196Z,21.70
2018-07-28T05:50:11.183Z,21.71
2018-07-28T05:51:11.054Z,21.71
2018-07-28T05:52:10.932Z,21.71
2018-07-28T05:53:10.855Z,21.75
2018-07-28T05:54:10.763Z,22.01
2018-07-28T05:55:10.676Z,21.98
2018-07-28T05:56:10.617Z,21.98
2018-07-28T05:57:10.504Z,22.02
2018-07-28T05:58:10.418Z,22.01
2018-07-28T05:59:10.330Z,22.08
2018-07-28T06:00:10.241Z,22.14
2018-07-28T06:01:10.580Z,22.11
2018-07-28T06:02:10.125Z,22.17
2018-07-28T06:03:09.983Z,22.17
2018-07-28T06:04:09.904Z,22.15
2018-07-28T06:05:09.812Z,22.23
2018-07-28T06:06:09.765Z,22.30
2018-07-28T06:07:09.641Z,22.31
2018-07-28T06:08:09.552Z,22.29
2018-07-28T06:09:09.468Z,22.27
2018-07-28T06:10:09.383Z,22.36
2018-07-28T06:11:09.325Z,22.26
2018-07-28T06:12:09.213Z,22.36
2018-07-28T06:13:09.125Z,22.38
2018-07-28T06:14:09.085Z,22.35
2018-07-28T06:15:08.953Z,22.42
2018-07-28T06:16:08.896Z,22.44
2018-07-28T06:17:08.784Z,22.48
2018-07-28T06:18:08.696Z,22.57
2018-07-28T06:19:08.609Z,22.56
2018-07-28T06:20:08.586Z,22.54
2018-07-28T06:21:08.466Z,22.52
2018-07-28T06:22:08.353Z,22.54
2018-07-28T06:23:08.265Z,22.56
2018-07-28T06:24:08.180Z,22.51
2018-07-28T06:25:08.093Z,22.59
2018-07-28T06:26:08.040Z,22.61
2018-07-28T06:27:07.923Z,22.69
2018-07-28T06:28:07.837Z,22.74
2018-07-28T06:29:07.752Z,22.74
2018-07-28T06:30:07.668Z,22.72
2018-07-28T06:31:10.626Z,22.67
2018-07-28T06:32:07.494Z,22.74
2018-07-28T06:33:07.409Z,22.82
2018-07-28T06:34:07.324Z,22.86
2018-07-28T06:35:07.234Z,23.00
2018-07-28T06:36:07.181Z,23.14
2018-07-28T06:37:07.068Z,23.01
2018-07-28T06:38:06.982Z,23.09
2018-07-28T06:39:06.894Z,23.06
2018-07-28T06:40:06.808Z,23.12
2018-07-28T06:41:06.727Z,23.14
2018-07-28T06:42:06.672Z,23.18
2018-07-28T06:43:06.573Z,23.15
2018-07-28T06:44:06.469Z,23.31
2018-07-28T06:45:06.381Z,23.35
2018-07-28T06:46:06.302Z,23.56
2018-07-28T06:47:06.242Z,23.68
2018-07-28T06:48:06.125Z,23.86
2018-07-28T06:49:06.134Z,23.90
2018-07-28T06:50:05.955Z,24.05
2018-07-28T06:51:05.873Z,24.34
2018-07-28T06:52:05.817Z,24.49
2018-07-28T06:53:05.701Z,24.63
2018-07-28T06:54:05.634Z,24.64
2018-07-28T06:55:05.534Z,24.93
2018-07-28T06:56:05.590Z,25.09
2018-07-28T06:57:05.396Z,25.09
2018-07-28T06:58:05.278Z,25.09
2018-07-28T06:59:05.193Z,25.07
2018-07-28T07:00:05.114Z,24.93
2018-07-28T07:01:05.027Z,25.08
2018-07-28T07:02:04.976Z,25.29
2018-07-28T07:03:04.958Z,25.23
2018-07-28T07:04:04.778Z,25.41
2018-07-28T07:05:04.696Z,25.54
2018-07-28T07:06:04.613Z,25.79
2018-07-28T07:07:04.573Z,25.71
2018-07-28T07:08:04.448Z,25.79
2018-07-28T07:09:04.368Z,25.86
2018-07-28T07:10:04.377Z,25.67
2018-07-28T07:11:04.207Z,25.46
2018-07-28T07:12:04.155Z,25.61
2018-07-28T07:13:04.038Z,25.64
2018-07-28T07:14:03.955Z,25.64
2018-07-28T07:15:03.872Z,25.67
2018-07-28T07:16:03.796Z,25.61
2018-07-28T07:17:03.836Z,25.74
2018-07-28T07:18:03.631Z,25.76
2018-07-28T07:19:03.547Z,25.78
2018-07-28T07:20:03.471Z,25.60
2018-07-28T07:21:03.385Z,25.48
2018-07-28T07:22:03.341Z,25.57
2018-07-28T07:23:03.221Z,25.63
2018-07-28T07:24:03.235Z,25.60
2018-07-28T07:25:03.062Z,25.74
2018-07-28T07:26:02.982Z,25.82
2018-07-28T07:27:02.933Z,26.03
2018-07-28T07:28:02.835Z,26.17
2018-07-28T07:29:02.741Z,26.06
2018-07-28T07:30:02.658Z,26.38
2018-07-28T07:31:02.669Z,26.57
2018-07-28T07:32:02.527Z,26.50
2018-07-28T07:33:02.416Z,26.53
2018-07-28T07:34:02.335Z,26.35
2018-07-28T07:35:02.257Z,26.32
2018-07-28T07:36:02.184Z,26.54
2018-07-28T07:37:02.124Z,26.72
2018-07-28T07:38:02.109Z,26.71
2018-07-28T07:39:01.940Z,26.76
2018-07-28T07:40:01.857Z,26.97
2018-07-28T07:41:01.777Z,26.61
2018-07-28T07:42:01.726Z,26.31
2018-07-28T07:43:01.615Z,26.35
2018-07-28T07:44:01.536Z,26.17
2018-07-28T07:45:01.550Z,26.06
2018-07-28T07:46:01.376Z,26.19
2018-07-28T07:47:01.330Z,26.03
2018-07-28T07:48:01.216Z,26.19
2018-07-28T07:49:01.141Z,26.27
2018-07-28T07:50:01.058Z,26.44
2018-07-28T07:51:00.994Z,26.38
2018-07-28T07:52:01.020Z,26.42
2018-07-28T07:53:00.821Z,26.28
2018-07-28T07:54:00.844Z,26.23
2018-07-28T07:55:00.658Z,26.24
2018-07-28T07:56:00.578Z,26.36
2018-07-28T07:57:00.531Z,26.34
2018-07-28T07:58:00.510Z,26.36
2018-07-28T07:59:00.341Z,26.57
2018-07-28T08:00:00.263Z,26.69
2018-07-28T08:01:00.180Z,26.91
2018-07-28T08:02:00.133Z,27.01
2018-07-28T08:03:00.040Z,27.13
2018-07-28T08:03:59.941Z,27.39
2018-07-28T08:04:59.866Z,27.31
2018-07-28T08:05:59.783Z,27.23
2018-07-28T08:06:59.703Z,27.11
2018-07-28T08:07:59.655Z,26.88
2018-07-28T08:08:59.546Z,26.75
2018-07-28T08:09:59.464Z,26.91
2018-07-28T08:10:59.385Z,26.91
2018-07-28T08:11:59.311Z,26.79
2018-07-28T08:12:59.256Z,26.98
2018-07-28T08:13:59.148Z,26.83
2018-07-28T08:14:59.069Z,27.08
2018-07-28T08:15:58.992Z,26.83
2018-07-28T08:16:58.913Z,27.24
2018-07-28T08:17:58.864Z,27.38
2018-07-28T08:18:58.848Z,27.24
2018-07-28T08:19:58.670Z,27.25
2018-07-28T08:20:58.615Z,27.33
2018-07-28T08:21:58.522Z,27.46
2018-07-28T08:22:58.464Z,27.78
2018-07-28T08:23:58.354Z,28.06
2018-07-28T08:24:58.274Z,28.17
2018-07-28T08:25:58.304Z,28.35
2018-07-28T08:26:58.121Z,28.67
2018-07-28T08:27:58.070Z,29.02
2018-07-28T08:28:57.960Z,29.02
2018-07-28T08:29:57.883Z,28.51
2018-07-28T08:30:57.802Z,28.38
2018-07-28T08:31:57.722Z,28.38
2018-07-28T08:32:57.772Z,28.36
2018-07-28T08:33:57.568Z,28.32
2018-07-28T08:34:57.488Z,28.14
2018-07-28T08:35:57.410Z,27.99
2018-07-28T08:36:57.331Z,28.20
2018-07-28T08:37:57.325Z,28.52
2018-07-28T08:38:57.187Z,28.50
2018-07-28T08:39:57.208Z,28.43
2018-07-28T08:40:57.020Z,28.33
2018-07-28T08:41:56.938Z,28.36
2018-07-28T08:42:56.893Z,28.80
2018-07-28T08:43:56.783Z,28.74
2018-07-28T08:44:56.704Z,28.60
2018-07-28T08:45:56.626Z,28.13
2018-07-28T08:46:56.643Z,28.38
2018-07-28T08:47:56.502Z,28.45
2018-07-28T08:48:56.456Z,28.67
2018-07-28T08:49:56.311Z,28.62
2018-07-28T08:50:56.239Z,29.08
2018-07-28T08:51:56.155Z,29.32
2018-07-28T08:52:56.109Z,29.45
2018-07-28T08:53:56.094Z,29.42
2018-07-28T08:54:55.918Z,29.55
2018-07-28T08:55:55.844Z,29.92
2018-07-28T08:56:55.767Z,30.01
2018-07-28T08:57:55.719Z,29.99
2018-07-28T08:58:55.607Z,30.04
2018-07-28T08:59:55.532Z,29.81
2018-07-28T09:00:55.548Z,29.99
2018-07-28T09:01:55.378Z,30.29
2018-07-28T09:02:55.342Z,30.15
2018-07-28T09:03:55.222Z,30.25
2018-07-28T09:04:55.141Z,29.94
2018-07-28T09:05:55.089Z,29.73
2018-07-28T09:06:54.987Z,29.73
2018-07-28T09:07:55.036Z,30.03
2018-07-28T09:08:54.834Z,30.29
2018-07-28T09:09:54.758Z,30.67
2018-07-28T09:10:54.677Z,30.01
2018-07-28T09:11:54.604Z,30.06
2018-07-28T09:12:54.556Z,29.95
2018-07-28T09:13:54.448Z,29.91
2018-07-28T09:14:54.472Z,29.58
2018-07-28T09:15:54.292Z,29.49
2018-07-28T09:16:54.217Z,29.91
2018-07-28T09:17:54.206Z,30.49
2018-07-28T09:18:54.060Z,30.68
2018-07-28T09:19:53.985Z,30.97
2018-07-28T09:20:53.908Z,30.72
2018-07-28T09:21:53.924Z,30.83
2018-07-28T09:22:53.784Z,30.75
2018-07-28T09:23:53.679Z,30.81
2018-07-28T09:24:53.599Z,30.81
2018-07-28T09:25:53.523Z,31.25
2018-07-28T09:26:53.446Z,31.46
2018-07-28T09:27:53.397Z,31.38
2018-07-28T09:28:53.291Z,30.86
2018-07-28T09:29:53.217Z,31.32
2018-07-28T09:30:53.138Z,31.59
2018-07-28T09:31:53.066Z,31.97
2018-07-28T09:32:53.022Z,32.22
2018-07-28T09:33:52.914Z,31.79
2018-07-28T09:34:52.832Z,31.41
2018-07-28T09:35:52.762Z,31.57
2018-07-28T09:36:52.689Z,32.10
2018-07-28T09:37:52.608Z,32.22
2018-07-28T09:38:52.561Z,31.69
2018-07-28T09:39:52.452Z,31.52
2018-07-28T09:40:52.380Z,31.52
2018-07-28T09:41:52.303Z,32.05
2018-07-28T09:42:52.256Z,31.90
2018-07-28T09:43:52.151Z,32.13
2018-07-28T09:44:52.079Z,32.40
2018-07-28T09:45:52.001Z,32.76
2018-07-28T09:46:51.929Z,32.99
2018-07-28T09:47:51.847Z,32.88
2018-07-28T09:48:51.804Z,33.00
2018-07-28T09:49:51.699Z,33.29
2018-07-28T09:50:51.621Z,33.59
2018-07-28T09:51:51.547Z,33.89
2018-07-28T09:52:51.475Z,34.08
2018-07-28T09:53:51.430Z,33.89
2018-07-28T09:54:51.323Z,33.77
2018-07-28T09:55:51.246Z,34.15
2018-07-28T09:56:51.174Z,34.12
2018-07-28T09:57:51.101Z,34.27
2018-07-28T09:58:51.053Z,34.40
2018-07-28T09:59:50.949Z,34.19
2018-07-28T10:00:50.880Z,34.16
2018-07-28T10:01:50.800Z,32.49
2018-07-28T10:02:50.726Z,32.98
2018-07-28T10:03:50.691Z,31.59
2018-07-28T10:04:50.576Z,31.25
2018-07-28T10:05:50.509Z,31.62
2018-07-28T10:06:50.426Z,31.57
2018-07-28T10:07:50.357Z,31.98
2018-07-28T10:08:50.312Z,32.39
2018-07-28T10:09:50.209Z,32.73
2018-07-28T10:10:50.130Z,33.00
2018-07-28T10:11:50.055Z,33.26
2018-07-28T10:12:49.982Z,33.33
2018-07-28T10:13:49.936Z,33.72
2018-07-28T10:14:49.834Z,33.71
2018-07-28T10:15:49.755Z,33.35
2018-07-28T10:16:49.683Z,33.59
2018-07-28T10:17:49.609Z,33.79
2018-07-28T10:18:49.570Z,33.96
2018-07-28T10:19:49.461Z,34.12
2018-07-28T10:20:49.385Z,34.08
2018-07-28T10:21:49.312Z,33.89
2018-07-28T10:22:49.257Z,33.81
2018-07-28T10:23:49.194Z,34.30
2018-07-28T10:24:49.091Z,34.34
2018-07-28T10:25:49.018Z,33.63
2018-07-28T10:26:48.944Z,32.65
2018-07-28T10:27:48.870Z,31.95
2018-07-28T10:28:48.831Z,31.32
2018-07-28T10:29:48.721Z,31.04
2018-07-28T10:30:48.649Z,30.56
2018-07-28T10:31:48.571Z,30.13
2018-07-28T10:32:48.496Z,30.01
2018-07-28T10:33:48.457Z,29.97
2018-07-28T10:34:48.358Z,29.78
2018-07-28T10:35:48.273Z,29.49
2018-07-28T10:36:48.292Z,29.29
2018-07-28T10:37:48.124Z,29.21
2018-07-28T10:38:48.074Z,29.12
2018-07-28T10:39:47.969Z,29.07
2018-07-28T10:40:47.903Z,29.08
2018-07-28T10:41:47.818Z,28.77
2018-07-28T10:42:47.740Z,28.73
2018-07-28T10:43:47.695Z,28.50
2018-07-28T10:44:47.591Z,28.28
2018-07-28T10:45:47.514Z,28.17
2018-07-28T10:46:47.435Z,27.71
2018-07-28T10:47:47.361Z,27.62
2018-07-28T10:48:47.311Z,27.18
2018-07-28T10:49:47.204Z,26.81
2018-07-28T10:50:47.125Z,26.60
2018-07-28T10:51:47.063Z,26.16
2018-07-28T10:52:46.968Z,25.75
2018-07-28T10:53:46.918Z,25.29
2018-07-28T10:54:46.815Z,25.01
2018-07-28T10:55:46.734Z,24.74
2018-07-28T10:56:46.656Z,24.45
2018-07-28T10:57:46.574Z,23.86
2018-07-28T10:58:46.520Z,23.56
2018-07-28T10:59:46.414Z,22.96
2018-07-28T11:00:46.332Z,22.51
2018-07-28T11:01:46.254Z,22.14
2018-07-28T11:02:46.175Z,21.75
2018-07-28T11:03:46.120Z,21.15
2018-07-28T11:04:46.013Z,21.03
2018-07-28T11:05:46.031Z,20.68
2018-07-28T11:06:45.843Z,20.35
2018-07-28T11:07:45.761Z,20.02
2018-07-28T11:08:45.681Z,19.72
2018-07-28T11:09:45.625Z,19.38
2018-07-28T11:10:45.511Z,19.30
2018-07-28T11:11:45.430Z,19.20
2018-07-28T11:12:45.442Z,19.10
2018-07-28T11:13:45.265Z,18.99
2018-07-28T11:14:45.207Z,19.07
2018-07-28T11:15:45.098Z,18.99
2018-07-28T11:16:45.008Z,18.97
2018-07-28T11:17:44.922Z,18.99
2018-07-28T11:18:44.907Z,18.96
2018-07-28T11:19:44.877Z,19.24
2018-07-28T11:20:44.669Z,19.21
2018-07-28T11:21:44.581Z,19.24
2018-07-28T11:22:44.495Z,19.10
2018-07-28T11:23:44.413Z,19.25
2018-07-28T11:24:44.356Z,19.32
2018-07-28T11:25:44.236Z,19.24
2018-07-28T11:26:44.255Z,19.20
2018-07-28T11:27:44.068Z,19.50
2018-07-28T11:28:43.982Z,19.47
2018-07-28T11:29:43.928Z,19.60
2018-07-28T11:30:43.810Z,19.70
2018-07-28T11:31:43.771Z,19.79
2018-07-28T11:32:43.635Z,19.86
2018-07-28T11:33:43.646Z,19.95
2018-07-28T11:34:43.492Z,20.02
2018-07-28T11:35:43.376Z,20.23
2018-07-28T11:36:43.290Z,20.41
2018-07-28T11:37:43.203Z,20.53
2018-07-28T11:38:43.120Z,20.50
2018-07-28T11:39:43.064Z,20.61
2018-07-28T11:40:43.037Z,20.75
2018-07-28T11:41:42.859Z,20.90
2018-07-28T11:42:42.770Z,21.15
2018-07-28T11:43:42.702Z,21.26
2018-07-28T11:44:42.632Z,21.40
2018-07-28T11:45:42.524Z,21.94
2018-07-28T11:46:42.429Z,22.38
2018-07-28T11:47:42.439Z,23.16
2018-07-28T11:48:42.252Z,23.78
2018-07-28T11:49:42.197Z,24.12
2018-07-28T11:50:42.084Z,24.67
2018-07-28T11:51:42.004Z,25.07
2018-07-28T11:52:41.915Z,25.39
2018-07-28T11:53:41.832Z,25.71
2018-07-28T11:54:41.871Z,26.28
2018-07-28T11:55:41.664Z,26.72
2018-07-28T11:56:41.578Z,27.16
2018-07-28T11:57:41.493Z,27.50
2018-07-28T11:58:41.408Z,27.95
2018-07-28T11:59:41.356Z,28.21
2018-07-28T12:00:41.244Z,28.60
2018-07-28T12:01:41.305Z,28.79
2018-07-28T12:02:41.077Z,29.17
2018-07-28T12:03:40.999Z,29.30
2018-07-28T12:04:40.943Z,29.63
2018-07-28T12:05:40.832Z,29.86
2018-07-28T12:06:40.750Z,29.63
2018-07-28T12:07:40.665Z,29.70
2018-07-28T12:08:40.677Z,29.79
2018-07-28T12:09:40.509Z,29.76
2018-07-28T12:10:40.455Z,29.57
2018-07-28T12:11:40.345Z,29.89
2018-07-28T12:12:40.307Z,29.78
2018-07-28T12:13:40.187Z,29.45
2018-07-28T12:14:40.103Z,29.51
2018-07-28T12:15:40.144Z,28.98
2018-07-28T12:16:39.941Z,28.91
2018-07-28T12:17:39.864Z,28.55
2018-07-28T12:18:39.790Z,28.55
2018-07-28T12:19:39.702Z,28.38
2018-07-28T12:20:39.656Z,28.33
2018-07-28T12:21:39.542Z,28.36
2018-07-28T12:22:39.570Z,28.05
2018-07-28T12:23:39.383Z,27.76
2018-07-28T12:24:39.303Z,27.69
2018-07-28T12:25:39.250Z,27.39
2018-07-28T12:26:39.142Z,27.13
2018-07-28T12:27:39.064Z,26.84
2018-07-28T12:28:38.979Z,26.54
2018-07-28T12:29:38.900Z,26.17
2018-07-28T12:30:38.853Z,25.93
2018-07-28T12:31:38.740Z,25.72
2018-07-28T12:32:38.661Z,25.57
2018-07-28T12:33:38.581Z,25.46
2018-07-28T12:34:38.543Z,25.38
2018-07-28T12:35:38.445Z,25.27
2018-07-28T12:36:38.336Z,25.34
2018-07-28T12:37:38.256Z,25.41
2018-07-28T12:38:38.171Z,25.45
2018-07-28T12:39:38.092Z,25.60
2018-07-28T12:40:38.039Z,25.76
2018-07-28T12:41:37.945Z,25.76
2018-07-28T12:42:37.848Z,25.86
2018-07-28T12:43:37.767Z,25.96
2018-07-28T12:44:37.684Z,26.19
2018-07-28T12:45:37.631Z,26.66
2018-07-28T12:46:37.532Z,26.90
2018-07-28T12:47:37.440Z,27.13
2018-07-28T12:48:37.358Z,27.23
2018-07-28T12:49:37.375Z,27.61
2018-07-28T12:50:37.226Z,27.87
2018-07-28T12:51:37.115Z,28.15